Springfield, Texas
Current Conditions -  °F | °C
As of 10:35 PM on Saturday 22 Nov 2014 (Local Time) from KPSN Reporting Station
Moderate Rain Moderate Rain  
Wind Chill: 60°   Ceiling: 10000
Heat Index: 60°   Visibility: 10mi
Dew Point: 60°   Wind: 3mph
Humidity: 100%   Direction: 70°ENE
Pressure: 29.8"   Gusts: NA
Location:  31.935°N, 95.7672°W
Report Text: KPSN 230435Z AUTO 07003KT 10SM RA SCT021 SCT044 OVC100 15/15 A2980 RMK AO2 P0010 T01550155
Loading
Personal Weather Stations






























Interactive Weather Map New forecast layout! Learn more

10-Day Weather Forecast

Advertisements
Track Severe Weather on mobile